Terminal Aerodrome Forecast
Issued by NWS

Home | Current Version | Previous Version | Text Only | Print | Product List | Glossary On
Versions: 1 2 3 4 5 6 7 8 9 10 11 12
000
FTAK31 PAJN 301700
TAFAWG
TAF
PAWG 301735Z 3018/3118 28008KT P6SM SKC
     FM302200 32006KT P6SM SKC
     FM310200 26008KT P6SM SKC
     FM310600 VRB03KT P6SM SKC
     FM311600 32005KT P6SM SKC
      AMD LTD TO CLD VIS AND WIND 3106/3115=

USA.gov is the U.S. government's official web portal to all federal, state and local government web resources and services.